Kine — C6WT4 — position and weather

sailwx.info

Track history (hours):
 
Tides and Currents Weather Stations Pressure Air Temp Water Temp Dewpoint Dewpoint Depression Visibility Wind Speed Wind Dir Waves Ship Positions

Kine

Last reported at 2017-Jul-26 18:30 UTC. Time now 2017-Jul-26 18:35 UTC.
Position N 62°53' E 006°03'.

Length 89 m; draft 3.4 m.

Type: Cargo ship. MMSI: 311117000.

Date/timePositionNaut miles runAvg speedWind from/ knotsBaromVisibWave heightAir tempDewpointWater temp
2017-Jul-26 18:30N 62°53' E 006°03'5 9.1
2017-Jul-26 17:59N 62°56' E 006°09'5 9.3
2017-Jul-26 17:30N 62°60' E 006°16'5 9.2
2017-Jul-26 17:00N 63°03' E 006°22'5 9.0
2017-Jul-26 16:30N 63°07' E 006°28'4 9.0
2017-Jul-26 16:00N 63°10' E 006°34'18 8.9
2017-Jul-26 14:00N 63°24' E 006°59'5 9.4
2017-Jul-26 13:30N 63°28' E 007°05'5 9.3
2017-Jul-26 12:57N 63°32' E 007°12'18 9.3
2017-Jul-26 11:03N 63°46' E 007°37'1 9.3
2017-Jul-26 11:00N 63°46' E 007°38'4 9.0
2017-Jul-26 10:30N 63°49' E 007°44'4 8.7
2017-Jul-26 10:00N 63°53' E 007°51'4 8.7
2017-Jul-26 09:30N 63°56' E 007°57'154 9.3
2017-Jul-25 16:58N 66°08' E 011°02'4 9.2
2017-Jul-25 16:30N 66°12' E 011°08'5 9.0
2017-Jul-25 16:00N 66°16' E 011°15'5 9.2
2017-Jul-25 15:30N 66°19' E 011°21'5 9.2
2017-Jul-25 15:00N 66°23' E 011°28'9 9.2
2017-Jul-25 14:00N 66°31' E 011°40'5 9.0
2017-Jul-25 13:30N 66°35' E 011°46'5 9.1
2017-Jul-25 13:00N 66°38' E 011°53'5 9.3
2017-Jul-25 12:30N 66°42' E 011°60'5 9.3
2017-Jul-25 12:00N 66°46' E 012°07'5 9.2
2017-Jul-25 11:30N 66°49' E 012°14'5 9.3
2017-Jul-25 10:55N 66°54' E 012°23'14 9.7
2017-Jul-25 09:29N 67°05' E 012°45'510.2
2017-Jul-25 09:00N 67°08' E 012°53'510.1
2017-Jul-25 08:30N 67°12' E 013°01'510.1
2017-Jul-25 08:00N 67°16' E 013°09'5 9.9
2017-Jul-25 07:30N 67°20' E 013°17'510.0
2017-Jul-25 07:00N 67°24' E 013°25'510.1
2017-Jul-25 06:30N 67°28' E 013°34'510.3
2017-Jul-25 06:00N 67°32' E 013°43'510.3
2017-Jul-25 05:30N 67°36' E 013°51'510.2
2017-Jul-25 05:00N 67°40' E 013°59'510.2
2017-Jul-25 04:30N 67°44' E 014°08'510.1
2017-Jul-25 04:00N 67°48' E 014°16'510.0
2017-Jul-25 03:30N 67°52' E 014°25'510.0
2017-Jul-25 03:00N 67°55' E 014°33'510.0
2017-Jul-25 02:30N 67°59' E 014°43'510.1
2017-Jul-25 02:01N 68°02' E 014°53'510.0
2017-Jul-25 01:29N 68°06' E 015°03'510.1
2017-Jul-25 01:00N 68°09' E 015°13'510.3
2017-Jul-25 00:30N 68°11' E 015°25'2 3.1
2017-Jul-25 00:00N 68°13' E 015°27'5 9.6
2017-Jul-24 23:30N 68°13' E 015°14'5 9.8
2017-Jul-24 22:59N 68°13' E 015°01'4 8.0
2017-Jul-24 22:30N 68°16' E 014°58'5 9.7
2017-Jul-24 22:00N 68°21' E 015°02'5 9.7
2017-Jul-24 21:30N 68°25' E 015°08'5 9.0
2017-Jul-24 21:00N 68°30' E 015°12'510.0
2017-Jul-24 20:30N 68°33' E 015°03'3 4.9
2017-Jul-24 19:59N 68°35' E 014°57'0 0.0
2017-Jul-24 19:30N 68°35' E 014°57'0 0.0
2017-Jul-24 18:59N 68°35' E 014°57'0 0.0
2017-Jul-24 18:29N 68°35' E 014°57'0 0.0
2017-Jul-24 17:59N 68°35' E 014°57'0 0.0
2017-Jul-24 17:29N 68°35' E 014°57'0 0.0
2017-Jul-24 16:59N 68°35' E 014°57'0 0.0
2017-Jul-24 16:29N 68°35' E 014°57'0 0.0
2017-Jul-24 15:59N 68°35' E 014°57'0 0.0
2017-Jul-24 12:59N 68°35' E 014°57'0 0.0
2017-Jul-24 12:29N 68°35' E 014°57'0 0.0
2017-Jul-24 11:59N 68°35' E 014°57'0 0.0
2017-Jul-24 11:29N 68°35' E 014°57'0 0.0
2017-Jul-24 10:59N 68°35' E 014°57'0 0.0
2017-Jul-24 10:29N 68°35' E 014°57'0 0.0
2017-Jul-24 09:59N 68°35' E 014°57'0 0.0
2017-Jul-24 09:29N 68°35' E 014°57'0 0.0
2017-Jul-24 08:59N 68°35' E 014°57'0 0.0
2017-Jul-24 08:29N 68°35' E 014°57'3 5.4
2017-Jul-24 08:00N 68°33' E 015°03'5 9.7
2017-Jul-24 07:29N 68°29' E 015°12'4 8.3
2017-Jul-24 07:00N 68°26' E 015°09'4 7.7
2017-Jul-24 06:30N 68°22' E 015°03'5 9.1
2017-Jul-24 06:00N 68°18' E 014°58'5 9.5
2017-Jul-24 05:30N 68°13' E 014°57'5 9.7
2017-Jul-24 05:00N 68°13' E 015°10'612.1
2017-Jul-24 04:30N 68°13' E 015°26'4 7.3
2017-Jul-24 04:00N 68°13' E 015°36'3 7.1
2017-Jul-24 03:30N 68°11' E 015°28'2 5.0
2017-Jul-24 03:00N 68°10' E 015°22'3 5.3
2017-Jul-24 02:30N 68°08' E 015°16'3 5.8
2017-Jul-24 02:00N 68°06' E 015°10'3 6.9
2017-Jul-24 01:30N 68°04' E 015°03'4 7.4
2017-Jul-24 01:00N 68°02' E 014°56'4 7.7
2017-Jul-24 00:30N 67°59' E 014°48'4 7.8
2017-Jul-24 00:00N 67°57' E 014°40'4 8.0
2017-Jul-23 23:30N 67°54' E 014°32'4 8.8
2017-Jul-23 23:00N 67°51' E 014°23'4 8.9
2017-Jul-23 22:30N 67°48' E 014°15'4 8.9
2017-Jul-23 22:00N 67°45' E 014°08'4 8.8
2017-Jul-23 21:30N 67°41' E 014°01'4 8.6
2017-Jul-23 21:00N 67°38' E 013°54'4 8.6
2017-Jul-23 20:30N 67°34' E 013°47'4 8.3
2017-Jul-23 20:00N 67°31' E 013°40'4 8.3
2017-Jul-23 19:30N 67°28' E 013°33'4 8.4
2017-Jul-23 19:00N 67°25' E 013°26'4 8.6
2017-Jul-23 18:30N 67°21' E 013°20'4 8.2
2017-Jul-23 17:59N 67°18' E 013°13'4 8.0
2017-Jul-23 17:30N 67°14' E 013°08'4 8.2
2017-Jul-23 17:00N 67°11' E 013°02'4 8.0
2017-Jul-23 16:30N 67°08' E 012°55'4 8.1
2017-Jul-23 16:00N 67°05' E 012°49'5 9.3
2017-Jul-23 15:30N 67°01' E 012°42'26 9.5
2017-Jul-23 12:46N 66°40' E 012°01'3 9.9
2017-Jul-23 12:30N 66°38' E 011°57'510.2
2017-Jul-23 12:00N 66°34' E 011°50'510.4
2017-Jul-23 11:30N 66°30' E 011°43'510.6
2017-Jul-23 11:00N 66°25' E 011°36'16910.1
2017-Jul-22 18:16N 63°59' E 008°14'310.5
2017-Jul-22 18:00N 63°56' E 008°11'510.4
2017-Jul-22 17:30N 63°52' E 008°05'510.1
2017-Jul-22 17:00N 63°48' E 007°59'5 9.9
2017-Jul-22 16:30N 63°43' E 007°53'5 9.9
2017-Jul-22 16:00N 63°39' E 007°47'510.0
2017-Jul-22 15:30N 63°35' E 007°42'5 9.9
2017-Jul-22 15:00N 63°30' E 007°37'10 9.7
2017-Jul-22 14:00N 63°21' E 007°36'5 9.4
2017-Jul-22 13:30N 63°16' E 007°38'510.0
2017-Jul-22 13:01N 63°12' E 007°45'4 8.8
2017-Jul-22 12:30N 63°08' E 007°42'5 9.4
2017-Jul-22 12:00N 63°04' E 007°41'1 1.0
2017-Jul-22 11:28N 63°03' E 007°39'0 0.0
2017-Jul-22 10:58N 63°03' E 007°39'0 0.0
2017-Jul-22 10:28N 63°03' E 007°39'0 0.0
2017-Jul-22 09:58N 63°03' E 007°39'0 0.0
2017-Jul-22 09:28N 63°03' E 007°39'0 0.0
2017-Jul-22 08:58N 63°03' E 007°39'0 0.0
2017-Jul-22 08:28N 63°03' E 007°39'0 0.0
2017-Jul-22 07:58N 63°03' E 007°39'0 0.1
2017-Jul-22 07:31N 63°03' E 007°40'0 0.6
2017-Jul-22 07:00N 63°04' E 007°40'3 6.3
2017-Jul-22 06:30N 63°01' E 007°44'2 3.5
2017-Jul-22 06:00N 63°01' E 007°48'0 0.0
2017-Jul-22 05:30N 63°01' E 007°48'0 0.1
2017-Jul-22 05:00N 63°01' E 007°48'0 0.1
2017-Jul-22 04:30N 63°01' E 007°48'0 0.0
2017-Jul-22 04:00N 63°01' E 007°48'0 0.0
2017-Jul-22 03:30N 63°01' E 007°48'0 0.0
2017-Jul-22 03:00N 63°01' E 007°48'0 0.0
2017-Jul-22 02:30N 63°01' E 007°48'0 0.0
2017-Jul-22 02:00N 63°01' E 007°48'0 0.0
2017-Jul-22 01:30N 63°01' E 007°48'0 0.0
2017-Jul-22 01:00N 63°01' E 007°48'0 0.0
2017-Jul-22 00:30N 63°01' E 007°48'0 0.0
2017-Jul-22 00:00N 63°01' E 007°48'0 0.0
2017-Jul-21 23:30N 63°01' E 007°48'0 0.0
2017-Jul-21 23:00N 63°01' E 007°48'0 0.0
2017-Jul-21 22:30N 63°01' E 007°48'0 0.0
2017-Jul-21 22:00N 63°01' E 007°48'0 0.1
2017-Jul-21 21:30N 63°01' E 007°48'0 0.0
2017-Jul-21 21:00N 63°01' E 007°48'0 0.1
2017-Jul-21 20:30N 63°01' E 007°48'0 0.0
2017-Jul-21 20:00N 63°01' E 007°48'0 0.0
2017-Jul-21 19:30N 63°01' E 007°48'0 0.0
2017-Jul-21 19:00N 63°01' E 007°48'0 0.0
2017-Jul-21 18:30N 63°01' E 007°48'0 0.0
2017-Jul-21 18:00N 63°01' E 007°48'0 0.0
2017-Jul-21 17:30N 63°01' E 007°48'0 0.0
2017-Jul-21 17:00N 63°01' E 007°48'0 0.0
2017-Jul-21 16:30N 63°01' E 007°48'0 0.0
2017-Jul-21 16:00N 63°01' E 007°48'0 0.0
2017-Jul-21 15:30N 63°01' E 007°48'0 0.0
2017-Jul-21 15:00N 63°01' E 007°48'0 0.0
2017-Jul-21 14:30N 63°01' E 007°48'0 0.0
2017-Jul-21 14:00N 63°01' E 007°48'0 0.0
2017-Jul-21 13:30N 63°01' E 007°48'0 0.0
2017-Jul-21 13:00N 63°01' E 007°48'0 0.0
2017-Jul-21 12:30N 63°01' E 007°48'0 0.0
2017-Jul-21 12:00N 63°01' E 007°48'0 0.0
2017-Jul-21 11:30N 63°01' E 007°48'0 0.0
2017-Jul-21 11:00N 63°01' E 007°48'0 0.0
2017-Jul-21 10:30N 63°01' E 007°48'0 0.1
2017-Jul-21 10:00N 63°01' E 007°48'0 0.0
2017-Jul-21 09:30N 63°01' E 007°48'0 0.0
2017-Jul-21 09:00N 63°01' E 007°48'0 0.0
2017-Jul-21 08:30N 63°01' E 007°48'0 0.0
2017-Jul-21 08:00N 63°01' E 007°48'0 0.0
2017-Jul-21 07:30N 63°01' E 007°48'0 0.0
2017-Jul-21 07:00N 63°01' E 007°48'0 0.0
2017-Jul-21 06:30N 63°01' E 007°48'0 0.0
2017-Jul-21 06:00N 63°01' E 007°48'0 0.0
2017-Jul-21 05:30N 63°01' E 007°48'0 0.1
2017-Jul-21 05:00N 63°01' E 007°48'0 0.1
2017-Jul-21 04:30N 63°01' E 007°48'0 0.0
2017-Jul-21 04:00N 63°01' E 007°48'0 0.1
2017-Jul-21 03:30N 63°01' E 007°48'0 0.0
2017-Jul-21 03:00N 63°01' E 007°48'0 0.0
2017-Jul-21 02:30N 63°01' E 007°48'0 0.1
2017-Jul-21 02:00N 63°01' E 007°48'0 0.0
2017-Jul-21 01:30N 63°01' E 007°48'0 0.0
2017-Jul-21 01:00N 63°01' E 007°48'0 0.0
2017-Jul-21 00:30N 63°01' E 007°48'0 0.0
2017-Jul-21 00:00N 63°01' E 007°48'0 0.0
2017-Jul-20 23:30N 63°01' E 007°48'0 0.0
2017-Jul-20 23:00N 63°01' E 007°48'0 0.0
2017-Jul-20 22:30N 63°01' E 007°48'0 0.0
2017-Jul-20 22:00N 63°01' E 007°48'0 0.0
2017-Jul-20 21:30N 63°01' E 007°48'0 0.0
2017-Jul-20 21:00N 63°01' E 007°48'0 0.0
2017-Jul-20 20:30N 63°01' E 007°48'0 0.0
2017-Jul-20 20:00N 63°01' E 007°48'0 0.0
2017-Jul-20 19:30N 63°01' E 007°48'0 0.0
2017-Jul-20 19:00N 63°01' E 007°48'0 0.0
2017-Jul-20 18:30N 63°01' E 007°48'0 0.0
2017-Jul-20 17:57N 63°01' E 007°48'0 0.0
2017-Jul-20 17:30N 63°01' E 007°48'0 0.1
2017-Jul-20 17:00N 63°01' E 007°48'0 0.1
2017-Jul-20 16:30N 63°01' E 007°48'0 0.0
2017-Jul-20 16:00N 63°01' E 007°48'0 0.1
2017-Jul-20 15:30N 63°01' E 007°48'0 0.1
2017-Jul-20 15:00N 63°01' E 007°48'0 0.1
2017-Jul-20 14:00N 63°01' E 007°48'0 0.1
2017-Jul-20 13:30N 63°01' E 007°48'0 0.0
2017-Jul-20 13:00N 63°01' E 007°48'0 0.0
2017-Jul-20 12:30N 63°01' E 007°48'0 0.0
2017-Jul-20 12:00N 63°01' E 007°48'0 0.0
2017-Jul-20 11:30N 63°01' E 007°48'0 0.0
2017-Jul-20 11:00N 63°01' E 007°48'0 0.0
2017-Jul-20 10:30N 63°01' E 007°48'0 0.0
2017-Jul-20 10:00N 63°01' E 007°48'0 0.0
2017-Jul-20 09:30N 63°01' E 007°48'0 0.0
2017-Jul-20 09:00N 63°01' E 007°48'0 0.0
2017-Jul-20 08:30N 63°01' E 007°48'0 0.0
2017-Jul-20 08:00N 63°01' E 007°48'0 0.0
2017-Jul-20 07:30N 63°01' E 007°48'0 0.0
2017-Jul-20 07:00N 63°01' E 007°48'0 0.0
2017-Jul-20 06:30N 63°01' E 007°48'0 0.0
2017-Jul-20 06:00N 63°01' E 007°48'0 0.0
2017-Jul-20 05:30N 63°01' E 007°48'0 0.0
2017-Jul-20 05:00N 63°01' E 007°48'0 0.0
2017-Jul-20 04:30N 63°01' E 007°48'0 0.0
2017-Jul-20 04:00N 63°01' E 007°48'0 0.0
2017-Jul-20 03:30N 63°01' E 007°48'0 0.0
2017-Jul-20 03:00N 63°01' E 007°48'0 0.0
2017-Jul-20 02:30N 63°01' E 007°48'0 0.0
2017-Jul-20 02:00N 63°01' E 007°48'0 0.0
2017-Jul-20 01:30N 63°01' E 007°48'0 0.0
2017-Jul-20 01:00N 63°01' E 007°48'0 0.0
2017-Jul-20 00:30N 63°01' E 007°48'0 0.0
2017-Jul-20 00:00N 63°01' E 007°48'0 0.0
2017-Jul-19 23:30N 63°01' E 007°48'0 0.0
2017-Jul-19 23:00N 63°01' E 007°48'0 0.0
2017-Jul-19 22:30N 63°01' E 007°48'0 0.0
2017-Jul-19 22:00N 63°01' E 007°48'0 0.0
2017-Jul-19 21:30N 63°01' E 007°48'0 0.0
2017-Jul-19 21:00N 63°01' E 007°48'0 0.0
2017-Jul-19 20:30N 63°01' E 007°48'0 0.0
2017-Jul-19 20:00N 63°01' E 007°48'0 0.0
2017-Jul-19 19:30N 63°01' E 007°48'0 0.0
2017-Jul-19 19:00N 63°01' E 007°48'0 0.0
2017-Jul-19 18:30N 63°01' E 007°48'0 0.0
2017-Jul-19 18:00N 63°01' E 007°48'0 0.0
2017-Jul-19 17:30N 63°01' E 007°48'0 0.0
2017-Jul-19 17:00N 63°01' E 007°48'0 0.0
2017-Jul-19 16:30N 63°01' E 007°48'0 0.0
2017-Jul-19 16:00N 63°01' E 007°48'0 0.0
2017-Jul-19 15:30N 63°01' E 007°48'0 0.0
2017-Jul-19 15:00N 63°01' E 007°48'0 0.0
2017-Jul-19 14:30N 63°01' E 007°48'0 0.0
2017-Jul-19 14:00N 63°01' E 007°48'0 0.1
2017-Jul-19 13:30N 63°01' E 007°48'0 0.0
2017-Jul-19 13:00N 63°01' E 007°48'0 0.0
2017-Jul-19 12:30N 63°01' E 007°48'0 0.1
2017-Jul-19 12:00N 63°01' E 007°48'0 0.0
2017-Jul-19 11:30N 63°01' E 007°48'0 0.0
2017-Jul-19 11:00N 63°01' E 007°48'0 0.0
2017-Jul-19 10:30N 63°01' E 007°48'0 0.0
2017-Jul-19 10:00N 63°01' E 007°48'0 0.1
2017-Jul-19 09:30N 63°01' E 007°48'0 0.1
2017-Jul-19 09:00N 63°01' E 007°48'0 0.1
2017-Jul-19 08:30N 63°01' E 007°48'0 0.0
2017-Jul-19 08:00N 63°01' E 007°48'0 0.0
2017-Jul-19 07:30N 63°01' E 007°48'0 0.0
2017-Jul-19 07:00N 63°01' E 007°48'0 0.0
2017-Jul-19 06:30N 63°01' E 007°48'0 0.0
2017-Jul-19 06:00N 63°01' E 007°48'0 0.0
2017-Jul-19 05:30N 63°01' E 007°48'0 0.0
2017-Jul-19 05:00N 63°01' E 007°48'0 0.0
2017-Jul-19 04:30N 63°01' E 007°48'0 0.1
2017-Jul-19 04:00N 63°01' E 007°48'0 0.0
2017-Jul-19 03:30N 63°01' E 007°48'0 0.0
2017-Jul-19 03:00N 63°01' E 007°48'0 0.0
2017-Jul-19 02:30N 63°01' E 007°48'0 0.0
2017-Jul-19 02:00N 63°01' E 007°48'0 0.0
2017-Jul-19 01:30N 63°01' E 007°48'0 0.0
2017-Jul-19 01:00N 63°01' E 007°48'0 0.0
2017-Jul-19 00:30N 63°01' E 007°48'0 0.0
2017-Jul-19 00:00N 63°01' E 007°48'0 0.0
2017-Jul-18 23:30N 63°01' E 007°48'0 0.0
2017-Jul-18 23:00N 63°01' E 007°48'0 0.0
2017-Jul-18 22:30N 63°01' E 007°48'0 0.0
2017-Jul-18 22:00N 63°01' E 007°48'0 0.0
2017-Jul-18 21:30N 63°01' E 007°48'0 0.0
2017-Jul-18 21:00N 63°01' E 007°48'0 0.0
2017-Jul-18 20:30N 63°01' E 007°48'0 0.1
2017-Jul-18 20:00N 63°01' E 007°48'0 0.0
2017-Jul-18 19:30N 63°01' E 007°48'0 0.0
2017-Jul-18 19:00N 63°01' E 007°48'0 0.1
2017-Jul-18 18:30N 63°01' E 007°48'0 0.3
2017-Jul-18 18:00N 63°01' E 007°48'3 5.3
2017-Jul-18 17:30N 63°03' E 007°53'4 8.6
2017-Jul-18 17:00N 63°07' E 007°54'5 9.7
2017-Jul-18 16:30N 63°11' E 007°47'5 9.1
2017-Jul-18 16:00N 63°14' E 007°40'5 9.6
2017-Jul-18 15:30N 63°15' E 007°30'510.1
2017-Jul-18 15:00N 63°15' E 007°19'9 9.4
2017-Jul-18 14:00N 63°17' E 006°58'  
Track history (hours):
 
Tides and Currents Weather Stations Pressure Air Temp Water Temp Dewpoint Dewpoint Depression Visibility Wind Speed Wind Dir Waves Ship Positions

Kine

Last reported at 2017-Jul-26 18:30 UTC. Time now 2017-Jul-26 18:35 UTC.
Position N 62°53' E 006°03'.

Length 89 m; draft 3.4 m.

Type: Cargo ship. MMSI: 311117000.

Date/timePositionNaut miles runAvg speedWind from/ knotsBaromVisibWave heightAir tempDewpointWater temp
2017-Jul-26 18:30N 62°53' E 006°03'5 9.1
2017-Jul-26 17:59N 62°56' E 006°09'5 9.3
2017-Jul-26 17:30N 62°60' E 006°16'5 9.2
2017-Jul-26 17:00N 63°03' E 006°22'5 9.0
2017-Jul-26 16:30N 63°07' E 006°28'4 9.0
2017-Jul-26 16:00N 63°10' E 006°34'18 8.9
2017-Jul-26 14:00N 63°24' E 006°59'5 9.4
2017-Jul-26 13:30N 63°28' E 007°05'5 9.3
2017-Jul-26 12:57N 63°32' E 007°12'18 9.3
2017-Jul-26 11:03N 63°46' E 007°37'1 9.3
2017-Jul-26 11:00N 63°46' E 007°38'4 9.0
2017-Jul-26 10:30N 63°49' E 007°44'4 8.7
2017-Jul-26 10:00N 63°53' E 007°51'4 8.7
2017-Jul-26 09:30N 63°56' E 007°57'154 9.3
2017-Jul-25 16:58N 66°08' E 011°02'4 9.2
2017-Jul-25 16:30N 66°12' E 011°08'5 9.0
2017-Jul-25 16:00N 66°16' E 011°15'5 9.2
2017-Jul-25 15:30N 66°19' E 011°21'5 9.2
2017-Jul-25 15:00N 66°23' E 011°28'9 9.2
2017-Jul-25 14:00N 66°31' E 011°40'5 9.0
2017-Jul-25 13:30N 66°35' E 011°46'5 9.1
2017-Jul-25 13:00N 66°38' E 011°53'5 9.3
2017-Jul-25 12:30N 66°42' E 011°60'5 9.3
2017-Jul-25 12:00N 66°46' E 012°07'5 9.2
2017-Jul-25 11:30N 66°49' E 012°14'5 9.3
2017-Jul-25 10:55N 66°54' E 012°23'14 9.7
2017-Jul-25 09:29N 67°05' E 012°45'510.2
2017-Jul-25 09:00N 67°08' E 012°53'510.1
2017-Jul-25 08:30N 67°12' E 013°01'510.1
2017-Jul-25 08:00N 67°16' E 013°09'5 9.9
2017-Jul-25 07:30N 67°20' E 013°17'510.0
2017-Jul-25 07:00N 67°24' E 013°25'510.1
2017-Jul-25 06:30N 67°28' E 013°34'510.3
2017-Jul-25 06:00N 67°32' E 013°43'510.3
2017-Jul-25 05:30N 67°36' E 013°51'510.2
2017-Jul-25 05:00N 67°40' E 013°59'510.2
2017-Jul-25 04:30N 67°44' E 014°08'510.1
2017-Jul-25 04:00N 67°48' E 014°16'510.0
2017-Jul-25 03:30N 67°52' E 014°25'510.0
2017-Jul-25 03:00N 67°55' E 014°33'510.0
2017-Jul-25 02:30N 67°59' E 014°43'510.1
2017-Jul-25 02:01N 68°02' E 014°53'510.0
2017-Jul-25 01:29N 68°06' E 015°03'510.1
2017-Jul-25 01:00N 68°09' E 015°13'510.3
2017-Jul-25 00:30N 68°11' E 015°25'2 3.1
2017-Jul-25 00:00N 68°13' E 015°27'5 9.6
2017-Jul-24 23:30N 68°13' E 015°14'5 9.8
2017-Jul-24 22:59N 68°13' E 015°01'4 8.0
2017-Jul-24 22:30N 68°16' E 014°58'5 9.7
2017-Jul-24 22:00N 68°21' E 015°02'5 9.7
2017-Jul-24 21:30N 68°25' E 015°08'5 9.0
2017-Jul-24 21:00N 68°30' E 015°12'510.0
2017-Jul-24 20:30N 68°33' E 015°03'3 4.9
2017-Jul-24 19:59N 68°35' E 014°57'0 0.0
2017-Jul-24 19:30N 68°35' E 014°57'0 0.0
2017-Jul-24 18:59N 68°35' E 014°57'0 0.0
2017-Jul-24 18:29N 68°35' E 014°57'0 0.0
2017-Jul-24 17:59N 68°35' E 014°57'0 0.0
2017-Jul-24 17:29N 68°35' E 014°57'0 0.0
2017-Jul-24 16:59N 68°35' E 014°57'0 0.0
2017-Jul-24 16:29N 68°35' E 014°57'0 0.0
2017-Jul-24 15:59N 68°35' E 014°57'0 0.0
2017-Jul-24 12:59N 68°35' E 014°57'0 0.0
2017-Jul-24 12:29N 68°35' E 014°57'0 0.0
2017-Jul-24 11:59N 68°35' E 014°57'0 0.0
2017-Jul-24 11:29N 68°35' E 014°57'0 0.0
2017-Jul-24 10:59N 68°35' E 014°57'0 0.0
2017-Jul-24 10:29N 68°35' E 014°57'0 0.0
2017-Jul-24 09:59N 68°35' E 014°57'0 0.0
2017-Jul-24 09:29N 68°35' E 014°57'0 0.0
2017-Jul-24 08:59N 68°35' E 014°57'0 0.0
2017-Jul-24 08:29N 68°35' E 014°57'3 5.4
2017-Jul-24 08:00N 68°33' E 015°03'5 9.7
2017-Jul-24 07:29N 68°29' E 015°12'4 8.3
2017-Jul-24 07:00N 68°26' E 015°09'4 7.7
2017-Jul-24 06:30N 68°22' E 015°03'5 9.1
2017-Jul-24 06:00N 68°18' E 014°58'5 9.5
2017-Jul-24 05:30N 68°13' E 014°57'5 9.7
2017-Jul-24 05:00N 68°13' E 015°10'612.1
2017-Jul-24 04:30N 68°13' E 015°26'4 7.3
2017-Jul-24 04:00N 68°13' E 015°36'3 7.1
2017-Jul-24 03:30N 68°11' E 015°28'2 5.0
2017-Jul-24 03:00N 68°10' E 015°22'3 5.3
2017-Jul-24 02:30N 68°08' E 015°16'3 5.8
2017-Jul-24 02:00N 68°06' E 015°10'3 6.9
2017-Jul-24 01:30N 68°04' E 015°03'4 7.4
2017-Jul-24 01:00N 68°02' E 014°56'4 7.7
2017-Jul-24 00:30N 67°59' E 014°48'4 7.8
2017-Jul-24 00:00N 67°57' E 014°40'4 8.0
2017-Jul-23 23:30N 67°54' E 014°32'4 8.8
2017-Jul-23 23:00N 67°51' E 014°23'4 8.9
2017-Jul-23 22:30N 67°48' E 014°15'4 8.9
2017-Jul-23 22:00N 67°45' E 014°08'4 8.8
2017-Jul-23 21:30N 67°41' E 014°01'4 8.6
2017-Jul-23 21:00N 67°38' E 013°54'4 8.6
2017-Jul-23 20:30N 67°34' E 013°47'4 8.3
2017-Jul-23 20:00N 67°31' E 013°40'4 8.3
2017-Jul-23 19:30N 67°28' E 013°33'4 8.4
2017-Jul-23 19:00N 67°25' E 013°26'4 8.6
2017-Jul-23 18:30N 67°21' E 013°20'4 8.2
2017-Jul-23 17:59N 67°18' E 013°13'4 8.0
2017-Jul-23 17:30N 67°14' E 013°08'4 8.2
2017-Jul-23 17:00N 67°11' E 013°02'4 8.0
2017-Jul-23 16:30N 67°08' E 012°55'4 8.1
2017-Jul-23 16:00N 67°05' E 012°49'5 9.3
2017-Jul-23 15:30N 67°01' E 012°42'26 9.5
2017-Jul-23 12:46N 66°40' E 012°01'3 9.9
2017-Jul-23 12:30N 66°38' E 011°57'510.2
2017-Jul-23 12:00N 66°34' E 011°50'510.4
2017-Jul-23 11:30N 66°30' E 011°43'510.6
2017-Jul-23 11:00N 66°25' E 011°36'16910.1
2017-Jul-22 18:16N 63°59' E 008°14'310.5
2017-Jul-22 18:00N 63°56' E 008°11'510.4
2017-Jul-22 17:30N 63°52' E 008°05'510.1
2017-Jul-22 17:00N 63°48' E 007°59'5 9.9
2017-Jul-22 16:30N 63°43' E 007°53'5 9.9
2017-Jul-22 16:00N 63°39' E 007°47'510.0
2017-Jul-22 15:30N 63°35' E 007°42'5 9.9
2017-Jul-22 15:00N 63°30' E 007°37'10 9.7
2017-Jul-22 14:00N 63°21' E 007°36'5 9.4
2017-Jul-22 13:30N 63°16' E 007°38'510.0
2017-Jul-22 13:01N 63°12' E 007°45'4 8.8
2017-Jul-22 12:30N 63°08' E 007°42'5 9.4
2017-Jul-22 12:00N 63°04' E 007°41'1 1.0
2017-Jul-22 11:28N 63°03' E 007°39'0 0.0
2017-Jul-22 10:58N 63°03' E 007°39'0 0.0
2017-Jul-22 10:28N 63°03' E 007°39'0 0.0
2017-Jul-22 09:58N 63°03' E 007°39'0 0.0
2017-Jul-22 09:28N 63°03' E 007°39'0 0.0
2017-Jul-22 08:58N 63°03' E 007°39'0 0.0
2017-Jul-22 08:28N 63°03' E 007°39'0 0.0
2017-Jul-22 07:58N 63°03' E 007°39'0 0.1
2017-Jul-22 07:31N 63°03' E 007°40'0 0.6
2017-Jul-22 07:00N 63°04' E 007°40'3 6.3
2017-Jul-22 06:30N 63°01' E 007°44'2 3.5
2017-Jul-22 06:00N 63°01' E 007°48'0 0.0
2017-Jul-22 05:30N 63°01' E 007°48'0 0.1
2017-Jul-22 05:00N 63°01' E 007°48'0 0.1
2017-Jul-22 04:30N 63°01' E 007°48'0 0.0
2017-Jul-22 04:00N 63°01' E 007°48'0 0.0
2017-Jul-22 03:30N 63°01' E 007°48'0 0.0
2017-Jul-22 03:00N 63°01' E 007°48'0 0.0
2017-Jul-22 02:30N 63°01' E 007°48'0 0.0
2017-Jul-22 02:00N 63°01' E 007°48'0 0.0
2017-Jul-22 01:30N 63°01' E 007°48'0 0.0
2017-Jul-22 01:00N 63°01' E 007°48'0 0.0
2017-Jul-22 00:30N 63°01' E 007°48'0 0.0
2017-Jul-22 00:00N 63°01' E 007°48'0 0.0
2017-Jul-21 23:30N 63°01' E 007°48'0 0.0
2017-Jul-21 23:00N 63°01' E 007°48'0 0.0
2017-Jul-21 22:30N 63°01' E 007°48'0 0.0
2017-Jul-21 22:00N 63°01' E 007°48'0 0.1
2017-Jul-21 21:30N 63°01' E 007°48'0 0.0
2017-Jul-21 21:00N 63°01' E 007°48'0 0.1
2017-Jul-21 20:30N 63°01' E 007°48'0 0.0
2017-Jul-21 20:00N 63°01' E 007°48'0 0.0
2017-Jul-21 19:30N 63°01' E 007°48'0 0.0
2017-Jul-21 19:00N 63°01' E 007°48'0 0.0
2017-Jul-21 18:30N 63°01' E 007°48'0 0.0
2017-Jul-21 18:00N 63°01' E 007°48'0 0.0
2017-Jul-21 17:30N 63°01' E 007°48'0 0.0
2017-Jul-21 17:00N 63°01' E 007°48'0 0.0
2017-Jul-21 16:30N 63°01' E 007°48'0 0.0
2017-Jul-21 16:00N 63°01' E 007°48'0 0.0
2017-Jul-21 15:30N 63°01' E 007°48'0 0.0
2017-Jul-21 15:00N 63°01' E 007°48'0 0.0
2017-Jul-21 14:30N 63°01' E 007°48'0 0.0
2017-Jul-21 14:00N 63°01' E 007°48'0 0.0
2017-Jul-21 13:30N 63°01' E 007°48'0 0.0
2017-Jul-21 13:00N 63°01' E 007°48'0 0.0
2017-Jul-21 12:30N 63°01' E 007°48'0 0.0
2017-Jul-21 12:00N 63°01' E 007°48'0 0.0
2017-Jul-21 11:30N 63°01' E 007°48'0 0.0
2017-Jul-21 11:00N 63°01' E 007°48'0 0.0
2017-Jul-21 10:30N 63°01' E 007°48'0 0.1
2017-Jul-21 10:00N 63°01' E 007°48'0 0.0
2017-Jul-21 09:30N 63°01' E 007°48'0 0.0
2017-Jul-21 09:00N 63°01' E 007°48'0 0.0
2017-Jul-21 08:30N 63°01' E 007°48'0 0.0
2017-Jul-21 08:00N 63°01' E 007°48'0 0.0
2017-Jul-21 07:30N 63°01' E 007°48'0 0.0
2017-Jul-21 07:00N 63°01' E 007°48'0 0.0
2017-Jul-21 06:30N 63°01' E 007°48'0 0.0
2017-Jul-21 06:00N 63°01' E 007°48'0 0.0
2017-Jul-21 05:30N 63°01' E 007°48'0 0.1
2017-Jul-21 05:00N 63°01' E 007°48'0 0.1
2017-Jul-21 04:30N 63°01' E 007°48'0 0.0
2017-Jul-21 04:00N 63°01' E 007°48'0 0.1
2017-Jul-21 03:30N 63°01' E 007°48'0 0.0
2017-Jul-21 03:00N 63°01' E 007°48'0 0.0
2017-Jul-21 02:30N 63°01' E 007°48'0 0.1
2017-Jul-21 02:00N 63°01' E 007°48'0 0.0
2017-Jul-21 01:30N 63°01' E 007°48'0 0.0
2017-Jul-21 01:00N 63°01' E 007°48'0 0.0
2017-Jul-21 00:30N 63°01' E 007°48'0 0.0
2017-Jul-21 00:00N 63°01' E 007°48'0 0.0
2017-Jul-20 23:30N 63°01' E 007°48'0 0.0
2017-Jul-20 23:00N 63°01' E 007°48'0 0.0
2017-Jul-20 22:30N 63°01' E 007°48'0 0.0
2017-Jul-20 22:00N 63°01' E 007°48'0 0.0
2017-Jul-20 21:30N 63°01' E 007°48'0 0.0
2017-Jul-20 21:00N 63°01' E 007°48'0 0.0
2017-Jul-20 20:30N 63°01' E 007°48'0 0.0
2017-Jul-20 20:00N 63°01' E 007°48'0 0.0
2017-Jul-20 19:30N 63°01' E 007°48'0 0.0
2017-Jul-20 19:00N 63°01' E 007°48'0 0.0
2017-Jul-20 18:30N 63°01' E 007°48'0 0.0
2017-Jul-20 17:57N 63°01' E 007°48'0 0.0
2017-Jul-20 17:30N 63°01' E 007°48'0 0.1
2017-Jul-20 17:00N 63°01' E 007°48'0 0.1
2017-Jul-20 16:30N 63°01' E 007°48'0 0.0
2017-Jul-20 16:00N 63°01' E 007°48'0 0.1
2017-Jul-20 15:30N 63°01' E 007°48'0 0.1
2017-Jul-20 15:00N 63°01' E 007°48'0 0.1
2017-Jul-20 14:00N 63°01' E 007°48'0 0.1
2017-Jul-20 13:30N 63°01' E 007°48'0 0.0
2017-Jul-20 13:00N 63°01' E 007°48'0 0.0
2017-Jul-20 12:30N 63°01' E 007°48'0 0.0
2017-Jul-20 12:00N 63°01' E 007°48'0 0.0
2017-Jul-20 11:30N 63°01' E 007°48'0 0.0
2017-Jul-20 11:00N 63°01' E 007°48'0 0.0
2017-Jul-20 10:30N 63°01' E 007°48'0 0.0
2017-Jul-20 10:00N 63°01' E 007°48'0 0.0
2017-Jul-20 09:30N 63°01' E 007°48'0 0.0
2017-Jul-20 09:00N 63°01' E 007°48'0 0.0
2017-Jul-20 08:30N 63°01' E 007°48'0 0.0
2017-Jul-20 08:00N 63°01' E 007°48'0 0.0
2017-Jul-20 07:30N 63°01' E 007°48'0 0.0
2017-Jul-20 07:00N 63°01' E 007°48'0 0.0
2017-Jul-20 06:30N 63°01' E 007°48'0 0.0
2017-Jul-20 06:00N 63°01' E 007°48'0 0.0
2017-Jul-20 05:30N 63°01' E 007°48'0 0.0
2017-Jul-20 05:00N 63°01' E 007°48'0 0.0
2017-Jul-20 04:30N 63°01' E 007°48'0 0.0
2017-Jul-20 04:00N 63°01' E 007°48'0 0.0
2017-Jul-20 03:30N 63°01' E 007°48'0 0.0
2017-Jul-20 03:00N 63°01' E 007°48'0 0.0
2017-Jul-20 02:30N 63°01' E 007°48'0 0.0
2017-Jul-20 02:00N 63°01' E 007°48'0 0.0
2017-Jul-20 01:30N 63°01' E 007°48'0 0.0
2017-Jul-20 01:00N 63°01' E 007°48'0 0.0
2017-Jul-20 00:30N 63°01' E 007°48'0 0.0
2017-Jul-20 00:00N 63°01' E 007°48'0 0.0
2017-Jul-19 23:30N 63°01' E 007°48'0 0.0
2017-Jul-19 23:00N 63°01' E 007°48'0 0.0
2017-Jul-19 22:30N 63°01' E 007°48'0 0.0
2017-Jul-19 22:00N 63°01' E 007°48'0 0.0
2017-Jul-19 21:30N 63°01' E 007°48'0 0.0
2017-Jul-19 21:00N 63°01' E 007°48'0 0.0
2017-Jul-19 20:30N 63°01' E 007°48'0 0.0
2017-Jul-19 20:00N 63°01' E 007°48'0 0.0
2017-Jul-19 19:30N 63°01' E 007°48'0 0.0
2017-Jul-19 19:00N 63°01' E 007°48'0 0.0
2017-Jul-19 18:30N 63°01' E 007°48'0 0.0
2017-Jul-19 18:00N 63°01' E 007°48'0 0.0
2017-Jul-19 17:30N 63°01' E 007°48'0 0.0
2017-Jul-19 17:00N 63°01' E 007°48'0 0.0
2017-Jul-19 16:30N 63°01' E 007°48'0 0.0
2017-Jul-19 16:00N 63°01' E 007°48'0 0.0
2017-Jul-19 15:30N 63°01' E 007°48'0 0.0
2017-Jul-19 15:00N 63°01' E 007°48'0 0.0
2017-Jul-19 14:30N 63°01' E 007°48'0 0.0
2017-Jul-19 14:00N 63°01' E 007°48'0 0.1
2017-Jul-19 13:30N 63°01' E 007°48'0 0.0
2017-Jul-19 13:00N 63°01' E 007°48'0 0.0
2017-Jul-19 12:30N 63°01' E 007°48'0 0.1
2017-Jul-19 12:00N 63°01' E 007°48'0 0.0
2017-Jul-19 11:30N 63°01' E 007°48'0 0.0
2017-Jul-19 11:00N 63°01' E 007°48'0 0.0
2017-Jul-19 10:30N 63°01' E 007°48'0 0.0
2017-Jul-19 10:00N 63°01' E 007°48'0 0.1
2017-Jul-19 09:30N 63°01' E 007°48'0 0.1
2017-Jul-19 09:00N 63°01' E 007°48'0 0.1
2017-Jul-19 08:30N 63°01' E 007°48'0 0.0
2017-Jul-19 08:00N 63°01' E 007°48'0 0.0
2017-Jul-19 07:30N 63°01' E 007°48'0 0.0
2017-Jul-19 07:00N 63°01' E 007°48'0 0.0
2017-Jul-19 06:30N 63°01' E 007°48'0 0.0
2017-Jul-19 06:00N 63°01' E 007°48'0 0.0
2017-Jul-19 05:30N 63°01' E 007°48'0 0.0
2017-Jul-19 05:00N 63°01' E 007°48'0 0.0
2017-Jul-19 04:30N 63°01' E 007°48'0 0.1
2017-Jul-19 04:00N 63°01' E 007°48'0 0.0
2017-Jul-19 03:30N 63°01' E 007°48'0 0.0
2017-Jul-19 03:00N 63°01' E 007°48'0 0.0
2017-Jul-19 02:30N 63°01' E 007°48'0 0.0
2017-Jul-19 02:00N 63°01' E 007°48'0 0.0
2017-Jul-19 01:30N 63°01' E 007°48'0 0.0
2017-Jul-19 01:00N 63°01' E 007°48'0 0.0
2017-Jul-19 00:30N 63°01' E 007°48'0 0.0
2017-Jul-19 00:00N 63°01' E 007°48'0 0.0
2017-Jul-18 23:30N 63°01' E 007°48'0 0.0
2017-Jul-18 23:00N 63°01' E 007°48'0 0.0
2017-Jul-18 22:30N 63°01' E 007°48'0 0.0
2017-Jul-18 22:00N 63°01' E 007°48'0 0.0
2017-Jul-18 21:30N 63°01' E 007°48'0 0.0
2017-Jul-18 21:00N 63°01' E 007°48'0 0.0
2017-Jul-18 20:30N 63°01' E 007°48'0 0.1
2017-Jul-18 20:00N 63°01' E 007°48'0 0.0
2017-Jul-18 19:30N 63°01' E 007°48'0 0.0
2017-Jul-18 19:00N 63°01' E 007°48'0 0.1
2017-Jul-18 18:30N 63°01' E 007°48'0 0.3
2017-Jul-18 18:00N 63°01' E 007°48'3 5.3
2017-Jul-18 17:30N 63°03' E 007°53'4 8.6
2017-Jul-18 17:00N 63°07' E 007°54'5 9.7
2017-Jul-18 16:30N 63°11' E 007°47'5 9.1
2017-Jul-18 16:00N 63°14' E 007°40'5 9.6
2017-Jul-18 15:30N 63°15' E 007°30'510.1
2017-Jul-18 15:00N 63°15' E 007°19'9 9.4
2017-Jul-18 14:00N 63°17' E 006°58'  

Dump ship's entire track history